createdAt,value
2023-03-01T00:01:37.517Z,1.17
2023-03-01T00:04:05.789Z,1.17
2023-03-01T00:06:34.088Z,1.16
2023-03-01T00:09:02.234Z,1.16
2023-03-01T00:11:32.665Z,1.16
2023-03-01T00:14:02.373Z,1.16
2023-03-01T00:16:36.300Z,1.15
2023-03-01T00:19:04.474Z,1.14
2023-03-01T00:21:32.935Z,1.14
2023-03-01T00:24:01.111Z,1.11
2023-03-01T00:26:30.159Z,1.08
2023-03-01T00:29:00.317Z,1.06
2023-03-01T00:31:31.135Z,1.05
2023-03-01T00:34:02.612Z,1.04
2023-03-01T00:36:34.923Z,1.03
2023-03-01T00:39:05.807Z,1.02
2023-03-01T00:41:35.772Z,1.01
2023-03-01T00:44:04.421Z,1.00
2023-03-01T00:46:32.893Z,0.98
2023-03-01T00:49:03.236Z,0.95
2023-03-01T00:51:31.844Z,0.93
2023-03-01T00:54:02.346Z,0.92
2023-03-01T00:56:31.500Z,0.90
2023-03-01T00:58:59.910Z,0.88
2023-03-01T01:01:30.759Z,0.87
2023-03-01T01:04:17.039Z,0.86
2023-03-01T01:06:47.408Z,0.82
2023-03-01T01:09:18.343Z,0.82
2023-03-01T01:11:48.921Z,0.83
2023-03-01T01:14:18.941Z,0.82
2023-03-01T01:16:47.730Z,0.82
2023-03-01T01:19:16.409Z,0.83
2023-03-01T01:21:44.728Z,0.83
2023-03-01T01:24:13.376Z,0.82
2023-03-01T01:26:41.727Z,0.81
2023-03-01T01:29:10.617Z,0.80
2023-03-01T01:31:40.152Z,0.77
2023-03-01T01:34:13.917Z,0.75
2023-03-01T01:36:42.325Z,0.74
2023-03-01T01:39:14.303Z,0.73
2023-03-01T01:41:43.433Z,0.73
2023-03-01T01:44:11.448Z,0.72
2023-03-01T01:46:48.857Z,0.72
2023-03-01T01:49:19.776Z,0.71
2023-03-01T01:51:51.119Z,0.71
2023-03-01T01:54:31.358Z,0.71
2023-03-01T01:57:04.637Z,0.71
2023-03-01T01:59:34.585Z,0.71
2023-03-01T02:02:04.983Z,0.71
2023-03-01T02:04:34.512Z,0.72
2023-03-01T02:07:16.210Z,0.73
2023-03-01T02:09:49.804Z,0.71
2023-03-01T02:12:21.059Z,0.70
2023-03-01T02:14:49.121Z,0.69
2023-03-01T02:17:19.648Z,0.70
2023-03-01T02:20:08.170Z,0.71
2023-03-01T02:22:39.458Z,0.71
2023-03-01T02:25:31.992Z,0.75
2023-03-01T02:28:08.965Z,0.75
2023-03-01T02:30:37.330Z,0.79
2023-03-01T02:33:05.867Z,0.81
2023-03-01T02:35:39.985Z,0.84
2023-03-01T02:38:10.265Z,0.85
2023-03-01T02:40:40.388Z,0.86
2023-03-01T02:43:12.967Z,0.87
2023-03-01T02:45:50.953Z,0.86
2023-03-01T02:48:20.455Z,0.83
2023-03-01T02:51:05.329Z,0.81
2023-03-01T02:54:11.190Z,0.78
2023-03-01T02:56:39.204Z,0.71
2023-03-01T02:59:07.893Z,0.71
2023-03-01T03:01:39.504Z,0.69
2023-03-01T03:04:19.656Z,0.71
2023-03-01T03:06:51.620Z,0.73
2023-03-01T03:09:20.232Z,0.77
2023-03-01T03:11:48.359Z,0.81
2023-03-01T03:14:17.877Z,0.82
2023-03-01T03:16:51.176Z,0.83
2023-03-01T03:19:20.065Z,0.81
2023-03-01T03:21:48.548Z,0.80
2023-03-01T03:24:16.810Z,0.79
2023-03-01T03:26:44.871Z,0.79
2023-03-01T03:29:12.946Z,0.78
2023-03-01T03:31:40.930Z,0.80
2023-03-01T03:34:08.982Z,0.80
2023-03-01T03:36:37.052Z,0.81
2023-03-01T03:39:06.222Z,0.80
2023-03-01T03:41:36.319Z,0.78
2023-03-01T03:44:04.573Z,0.79
2023-03-01T03:46:32.916Z,0.80
2023-03-01T03:49:01.190Z,0.80
2023-03-01T03:51:29.274Z,0.83
2023-03-01T03:53:57.333Z,0.84
2023-03-01T03:56:28.609Z,0.83
2023-03-01T03:58:57.267Z,0.84
2023-03-01T04:01:25.387Z,0.85
2023-03-01T04:03:55.599Z,0.87
2023-03-01T04:06:23.731Z,0.85
2023-03-01T04:08:52.213Z,0.85
2023-03-01T04:11:29.223Z,0.86
2023-03-01T04:14:00.511Z,0.86
2023-03-01T04:16:29.067Z,0.86
2023-03-01T04:18:57.807Z,0.86
2023-03-01T04:21:25.980Z,0.86
2023-03-01T04:23:54.041Z,0.84
2023-03-01T04:26:22.322Z,0.82
2023-03-01T04:28:51.805Z,0.81
2023-03-01T04:31:22.567Z,0.80
2023-03-01T04:33:54.111Z,0.79
2023-03-01T04:36:27.071Z,0.80
2023-03-01T04:38:56.519Z,0.80
2023-03-01T04:41:25.918Z,0.83
2023-03-01T04:43:54.389Z,0.85
2023-03-01T04:46:23.308Z,0.86
2023-03-01T04:48:51.489Z,0.86
2023-03-01T04:51:19.683Z,0.87
2023-03-01T04:53:48.312Z,0.87
2023-03-01T04:56:18.946Z,0.88
2023-03-01T04:58:47.790Z,0.89
2023-03-01T05:01:20.838Z,0.91
2023-03-01T05:03:52.926Z,0.93
2023-03-01T05:06:22.387Z,0.94
2023-03-01T05:08:50.751Z,0.96
2023-03-01T05:11:18.820Z,0.98
2023-03-01T05:13:46.994Z,1.00
2023-03-01T05:16:15.126Z,1.03
2023-03-01T05:18:44.279Z,1.04
2023-03-01T05:21:17.223Z,1.06
2023-03-01T05:23:46.266Z,1.07
2023-03-01T05:26:27.791Z,1.08
2023-03-01T05:29:02.962Z,1.08
2023-03-01T05:31:32.125Z,1.08
2023-03-01T05:34:00.546Z,1.06
2023-03-01T05:36:28.969Z,1.05
2023-03-01T05:38:57.289Z,1.05
2023-03-01T05:41:25.316Z,1.05
2023-03-01T05:43:53.330Z,1.06
2023-03-01T05:46:21.665Z,1.07
2023-03-01T05:48:49.847Z,1.07
2023-03-01T05:51:18.790Z,1.07
2023-03-01T05:53:47.165Z,1.07
2023-03-01T05:56:15.216Z,1.07
2023-03-01T05:58:43.186Z,1.08
2023-03-01T06:01:14.790Z,1.09
2023-03-01T06:03:43.543Z,1.10
2023-03-01T06:06:11.601Z,1.11
2023-03-01T06:08:39.670Z,1.15
2023-03-01T06:11:08.880Z,1.18
2023-03-01T06:13:37.319Z,1.21
2023-03-01T06:16:07.729Z,1.22
2023-03-01T06:18:36.049Z,1.23
2023-03-01T06:21:05.451Z,1.25
2023-03-01T06:23:34.346Z,1.26
2023-03-01T06:26:07.129Z,1.27
2023-03-01T06:28:36.038Z,1.26
2023-03-01T06:31:04.691Z,1.26
2023-03-01T06:33:32.769Z,1.26
2023-03-01T06:36:00.899Z,1.25
2023-03-01T06:38:29.371Z,1.26
2023-03-01T06:40:57.769Z,1.25
2023-03-01T06:43:25.966Z,1.30
2023-03-01T06:45:54.061Z,1.33
2023-03-01T06:48:22.220Z,1.36
2023-03-01T06:50:50.392Z,1.41
2023-03-01T06:53:18.560Z,1.44
2023-03-01T06:55:46.728Z,1.49
2023-03-01T06:58:14.903Z,1.53
2023-03-01T07:00:44.202Z,1.59
2023-03-01T07:03:12.327Z,1.65
2023-03-01T07:05:40.478Z,1.69
2023-03-01T07:08:08.618Z,1.73
2023-03-01T07:10:36.784Z,1.79
2023-03-01T07:13:04.996Z,1.85
2023-03-01T07:15:33.982Z,1.89
2023-03-01T07:18:02.227Z,1.92
2023-03-01T07:20:30.398Z,1.97
2023-03-01T07:22:59.753Z,1.99
2023-03-01T07:25:28.174Z,2.03
2023-03-01T07:27:56.355Z,2.07
2023-03-01T07:30:27.328Z,2.12
2023-03-01T07:32:56.718Z,2.17
2023-03-01T07:35:27.056Z,2.19
2023-03-01T07:37:55.306Z,2.22
2023-03-01T07:40:23.420Z,2.25
2023-03-01T07:42:57.088Z,2.28
2023-03-01T07:45:26.794Z,2.29
2023-03-01T07:47:56.406Z,2.31
2023-03-01T07:50:24.757Z,2.34
2023-03-01T07:52:52.828Z,2.37
2023-03-01T07:55:21.265Z,2.41
2023-03-01T07:57:49.654Z,2.45
2023-03-01T08:00:18.219Z,2.47
2023-03-01T08:02:46.952Z,2.50
2023-03-01T08:05:15.022Z,2.50
2023-03-01T08:07:43.335Z,2.50
2023-03-01T08:10:12.272Z,2.49
2023-03-01T08:12:40.459Z,2.49
2023-03-01T08:15:09.238Z,2.51
2023-03-01T08:17:37.270Z,2.56
2023-03-01T08:20:08.076Z,2.59
2023-03-01T08:22:36.229Z,2.63
2023-03-01T08:25:05.111Z,2.64
2023-03-01T08:27:33.196Z,2.63
2023-03-01T08:30:01.294Z,2.64
2023-03-01T08:32:29.354Z,2.65
2023-03-01T08:34:57.476Z,2.65
2023-03-01T08:37:26.386Z,2.68
2023-03-01T08:39:56.106Z,2.75
2023-03-01T08:42:24.178Z,2.83
2023-03-01T08:44:52.248Z,2.88
2023-03-01T08:47:20.302Z,2.86
2023-03-01T08:49:50.119Z,2.87
2023-03-01T08:52:18.188Z,2.93
2023-03-01T08:54:46.197Z,2.99
2023-03-01T08:57:14.327Z,3.02
2023-03-01T08:59:42.714Z,3.00
2023-03-01T09:02:16.337Z,3.02
2023-03-01T09:04:45.463Z,3.01
2023-03-01T09:07:13.580Z,2.98
2023-03-01T09:09:41.952Z,2.98
2023-03-01T09:12:10.388Z,3.02
2023-03-01T09:14:39.938Z,3.06
2023-03-01T09:17:08.058Z,3.09
2023-03-01T09:19:36.289Z,3.12
2023-03-01T09:22:05.783Z,3.14
2023-03-01T09:24:33.957Z,3.19
2023-03-01T09:27:02.645Z,3.28
2023-03-01T09:29:30.716Z,3.29
2023-03-01T09:31:59.557Z,3.29
2023-03-01T09:34:27.777Z,3.31
2023-03-01T09:36:55.819Z,3.34
2023-03-01T09:39:23.921Z,3.40
2023-03-01T09:41:54.656Z,3.45
2023-03-01T09:44:40.184Z,3.48
2023-03-01T09:47:19.569Z,3.51
2023-03-01T09:50:13.066Z,3.59
2023-03-01T09:52:41.102Z,3.62
2023-03-01T09:55:15.833Z,3.64
2023-03-01T09:57:54.441Z,3.69
2023-03-01T10:00:35.822Z,3.78
2023-03-01T10:03:28.419Z,3.84
2023-03-01T10:06:16.629Z,3.90
2023-03-01T10:08:59.421Z,3.96
2023-03-01T10:11:37.262Z,4.01
2023-03-01T10:14:14.006Z,4.08
2023-03-01T10:16:55.858Z,4.12
2023-03-01T10:19:33.603Z,4.14
2023-03-01T10:22:32.582Z,4.16
2023-03-01T10:25:04.675Z,4.17
2023-03-01T10:27:48.287Z,4.26
2023-03-01T10:30:21.628Z,4.30
2023-03-01T10:32:53.870Z,4.35
2023-03-01T10:35:28.558Z,4.41
2023-03-01T10:38:12.217Z,4.48
2023-03-01T10:40:58.689Z,4.54
2023-03-01T10:43:29.614Z,4.59
2023-03-01T10:45:57.629Z,4.61
2023-03-01T10:48:28.685Z,4.59
2023-03-01T10:50:59.719Z,4.60
2023-03-01T10:53:33.553Z,4.61
2023-03-01T10:56:14.659Z,4.59
2023-03-01T10:59:01.999Z,4.55
2023-03-01T11:01:36.921Z,4.54
2023-03-01T11:04:07.786Z,4.57
2023-03-01T11:06:41.675Z,4.61
2023-03-01T11:09:24.311Z,4.67
2023-03-01T11:12:01.171Z,4.70
2023-03-01T11:14:36.782Z,4.73
2023-03-01T11:17:04.798Z,4.74
2023-03-01T11:19:33.957Z,4.73
2023-03-01T11:22:21.422Z,4.75
2023-03-01T11:25:07.426Z,4.75
2023-03-01T11:27:44.398Z,4.74
2023-03-01T11:30:28.617Z,4.78
2023-03-01T11:33:12.116Z,4.81
2023-03-01T11:35:50.790Z,4.87
2023-03-01T11:38:27.529Z,4.88
2023-03-01T11:41:13.635Z,4.93
2023-03-01T11:43:53.791Z,4.94
2023-03-01T11:46:27.851Z,4.98
2023-03-01T11:49:04.397Z,5.03
2023-03-01T11:51:50.071Z,5.09
2023-03-01T11:54:59.082Z,5.12
2023-03-01T11:57:54.702Z,5.11
2023-03-01T12:00:44.213Z,5.18
2023-03-01T12:03:23.939Z,5.26
2023-03-01T12:06:25.230Z,5.35
2023-03-01T12:09:07.677Z,5.37
2023-03-01T12:12:00.331Z,5.41
2023-03-01T12:15:16.330Z,5.42
2023-03-01T12:17:56.777Z,5.39
2023-03-01T12:20:45.122Z,5.43
2023-03-01T12:23:30.343Z,5.45
2023-03-01T12:25:58.362Z,5.46
2023-03-01T12:28:29.297Z,5.46
2023-03-01T12:31:00.122Z,5.51
2023-03-01T12:33:28.212Z,5.57
2023-03-01T12:36:08.160Z,5.61
2023-03-01T12:38:57.459Z,5.57
2023-03-01T12:41:44.958Z,5.50
2023-03-01T12:44:42.693Z,5.39
2023-03-01T12:47:18.610Z,5.27
2023-03-01T12:49:53.300Z,5.20
2023-03-01T12:52:24.126Z,5.13
2023-03-01T12:54:56.465Z,5.13
2023-03-01T12:57:37.952Z,5.15
2023-03-01T13:00:28.579Z,5.16
2023-03-01T13:03:25.627Z,5.19
2023-03-01T13:06:32.215Z,5.22
2023-03-01T13:09:20.256Z,5.25
2023-03-01T13:11:48.608Z,5.31
2023-03-01T13:14:22.596Z,5.40
2023-03-01T13:16:53.049Z,5.49
2023-03-01T13:19:26.337Z,5.59
2023-03-01T13:21:55.844Z,5.67
2023-03-01T13:24:40.705Z,5.74
2023-03-01T13:27:09.309Z,5.80
2023-03-01T13:29:51.199Z,5.85
2023-03-01T13:32:43.193Z,5.88
2023-03-01T13:35:16.006Z,5.90
2023-03-01T13:37:45.521Z,5.94
2023-03-01T13:40:23.721Z,6.02
2023-03-01T13:43:05.944Z,6.09
2023-03-01T13:45:40.719Z,6.16
2023-03-01T13:48:19.515Z,6.18
2023-03-01T13:50:54.463Z,6.21
2023-03-01T13:53:27.572Z,6.24
2023-03-01T13:56:18.911Z,6.28
2023-03-01T13:58:54.455Z,6.25
2023-03-01T14:01:31.964Z,6.18
2023-03-01T14:04:01.977Z,6.08
2023-03-01T14:06:32.678Z,6.04
2023-03-01T14:09:06.685Z,6.01
2023-03-01T14:11:37.735Z,5.98
2023-03-01T14:14:14.895Z,5.97
2023-03-01T14:17:15.737Z,5.93
2023-03-01T14:19:46.526Z,5.84
2023-03-01T14:22:31.266Z,5.83
2023-03-01T14:25:01.975Z,5.79
2023-03-01T14:27:42.978Z,5.81
2023-03-01T14:30:17.902Z,5.86
2023-03-01T14:33:04.691Z,5.91
2023-03-01T14:35:35.462Z,5.95
2023-03-01T14:38:04.639Z,5.98
2023-03-01T14:40:37.697Z,6.04
2023-03-01T14:43:18.740Z,6.07
2023-03-01T14:45:51.846Z,6.09
2023-03-01T14:48:20.458Z,6.12
2023-03-01T14:50:49.689Z,6.14
2023-03-01T14:53:24.484Z,6.18
2023-03-01T14:56:01.556Z,6.20
2023-03-01T14:58:29.847Z,6.21
2023-03-01T15:01:00.785Z,6.22
2023-03-01T15:03:40.320Z,6.23
2023-03-01T15:06:10.209Z,6.23
2023-03-01T15:08:42.308Z,6.25
2023-03-01T15:11:29.576Z,6.28
2023-03-01T15:13:57.703Z,6.30
2023-03-01T15:16:34.318Z,6.33
2023-03-01T15:19:06.058Z,6.35
2023-03-01T15:21:36.043Z,6.37
2023-03-01T15:24:20.591Z,6.38
2023-03-01T15:26:56.452Z,6.38
2023-03-01T15:29:41.664Z,6.39
2023-03-01T15:32:43.709Z,6.41
2023-03-01T15:35:37.160Z,6.41
2023-03-01T15:38:05.271Z,6.42
2023-03-01T15:40:33.385Z,6.46
2023-03-01T15:43:04.750Z,6.49
2023-03-01T15:45:38.347Z,6.53
2023-03-01T15:48:27.399Z,6.56
2023-03-01T15:50:58.710Z,6.57
2023-03-01T15:53:28.970Z,6.61
2023-03-01T15:55:56.928Z,6.65
2023-03-01T15:58:26.386Z,6.69
2023-03-01T16:01:01.261Z,6.73
2023-03-01T16:03:30.579Z,6.76
2023-03-01T16:05:58.666Z,6.79
2023-03-01T16:08:26.668Z,6.81
2023-03-01T16:10:55.715Z,6.83
2023-03-01T16:13:24.239Z,6.83
2023-03-01T16:15:52.610Z,6.81
2023-03-01T16:18:20.724Z,6.78
2023-03-01T16:20:49.992Z,6.77
2023-03-01T16:23:17.953Z,6.75
2023-03-01T16:25:46.072Z,6.74
2023-03-01T16:28:15.278Z,6.73
2023-03-01T16:30:48.557Z,6.72
2023-03-01T16:33:27.109Z,6.70
2023-03-01T16:36:07.685Z,6.66
2023-03-01T16:38:36.013Z,6.62
2023-03-01T16:41:04.420Z,6.57
2023-03-01T16:43:32.515Z,6.49
2023-03-01T16:46:00.596Z,6.40
2023-03-01T16:48:28.707Z,6.34
2023-03-01T16:51:01.213Z,6.29
2023-03-01T16:53:30.402Z,6.24
2023-03-01T16:55:59.831Z,6.20
2023-03-01T16:58:27.852Z,6.14
2023-03-01T17:00:57.503Z,6.10
2023-03-01T17:03:27.407Z,6.06
2023-03-01T17:05:55.540Z,6.01
2023-03-01T17:08:23.620Z,5.97
2023-03-01T17:10:51.683Z,5.95
2023-03-01T17:13:19.675Z,5.93
2023-03-01T17:15:47.820Z,5.90
2023-03-01T17:18:15.957Z,5.87
2023-03-01T17:20:44.066Z,5.81
2023-03-01T17:23:12.158Z,5.72
2023-03-01T17:25:46.460Z,5.65
2023-03-01T17:28:15.250Z,5.57
2023-03-01T17:30:48.136Z,5.54
2023-03-01T17:33:17.289Z,5.44
2023-03-01T17:35:47.523Z,5.35
2023-03-01T17:38:16.122Z,5.26
2023-03-01T17:40:48.057Z,5.24
2023-03-01T17:43:17.594Z,5.21
2023-03-01T17:45:48.822Z,5.20
2023-03-01T17:48:17.451Z,5.19
2023-03-01T17:50:46.051Z,5.16
2023-03-01T17:53:14.340Z,5.14
2023-03-01T17:55:43.905Z,5.11
2023-03-01T17:58:15.941Z,5.08
2023-03-01T18:00:43.910Z,5.08
2023-03-01T18:03:11.984Z,5.08
2023-03-01T18:05:39.960Z,5.03
2023-03-01T18:08:08.223Z,4.99
2023-03-01T18:10:37.829Z,4.96
2023-03-01T18:13:06.326Z,4.90
2023-03-01T18:15:34.454Z,4.85
2023-03-01T18:18:02.499Z,4.77
2023-03-01T18:20:32.977Z,4.72
2023-03-01T18:23:00.965Z,4.67
2023-03-01T18:25:29.013Z,4.66
2023-03-01T18:27:57.036Z,4.64
2023-03-01T18:30:24.999Z,4.62
2023-03-01T18:32:56.577Z,4.60
2023-03-01T18:35:24.683Z,4.60
2023-03-01T18:37:52.751Z,4.60
2023-03-01T18:40:20.718Z,4.59
2023-03-01T18:42:48.793Z,4.60
2023-03-01T18:45:18.008Z,4.58
2023-03-01T18:47:49.903Z,4.58
2023-03-01T18:50:18.518Z,4.57
2023-03-01T18:52:46.600Z,4.59
2023-03-01T18:55:14.668Z,4.63
2023-03-01T18:57:42.637Z,4.65
2023-03-01T19:00:11.826Z,4.63
2023-03-01T19:02:39.871Z,4.62
2023-03-01T19:05:08.812Z,4.61
2023-03-01T19:07:36.999Z,4.65
2023-03-01T19:10:05.626Z,4.70
2023-03-01T19:12:35.614Z,4.76
2023-03-01T19:15:05.307Z,4.80
2023-03-01T19:17:33.931Z,4.82
2023-03-01T19:20:01.959Z,4.85
2023-03-01T19:22:30.141Z,4.89
2023-03-01T19:24:58.443Z,4.91
2023-03-01T19:27:26.442Z,4.86
2023-03-01T19:29:54.522Z,4.84
2023-03-01T19:32:22.513Z,4.83
2023-03-01T19:34:50.656Z,4.84
2023-03-01T19:37:18.627Z,4.84
2023-03-01T19:39:48.157Z,4.82
2023-03-01T19:42:16.300Z,4.80
2023-03-01T19:44:44.484Z,4.78
2023-03-01T19:47:12.558Z,4.82
2023-03-01T19:49:40.744Z,4.84
2023-03-01T19:52:08.887Z,4.84
2023-03-01T19:54:36.990Z,4.86
2023-03-01T19:57:05.091Z,4.89
2023-03-01T19:59:33.117Z,4.90
2023-03-01T20:02:01.171Z,4.91
2023-03-01T20:04:29.124Z,4.91
2023-03-01T20:06:57.203Z,4.89
2023-03-01T20:09:25.629Z,4.89
2023-03-01T20:11:53.651Z,4.88
2023-03-01T20:14:23.905Z,4.88
2023-03-01T20:16:53.190Z,4.85
2023-03-01T20:19:21.416Z,4.82
2023-03-01T20:21:50.396Z,4.80
2023-03-01T20:24:18.407Z,4.79
2023-03-01T20:26:46.792Z,4.75
2023-03-01T20:29:14.864Z,4.75
2023-03-01T20:31:43.006Z,4.78
2023-03-01T20:34:11.222Z,4.80
2023-03-01T20:36:41.126Z,4.83
2023-03-01T20:39:09.838Z,4.83
2023-03-01T20:41:39.312Z,4.85
2023-03-01T20:44:07.893Z,4.85
2023-03-01T20:46:37.126Z,4.85
2023-03-01T20:49:06.221Z,4.85
2023-03-01T20:51:34.350Z,4.89
2023-03-01T20:54:03.346Z,4.94
2023-03-01T20:56:31.565Z,4.98
2023-03-01T20:59:09.421Z,5.02
2023-03-01T21:01:39.509Z,5.06
2023-03-01T21:04:07.750Z,5.10
2023-03-01T21:06:36.624Z,5.14
2023-03-01T21:09:05.464Z,5.18
2023-03-01T21:11:33.623Z,5.21
2023-03-01T21:14:01.736Z,5.23
2023-03-01T21:16:29.979Z,5.20
2023-03-01T21:19:07.511Z,5.19
2023-03-01T21:21:35.571Z,5.17
2023-03-01T21:24:04.416Z,5.15
2023-03-01T21:26:32.759Z,5.14
2023-03-01T21:29:01.602Z,5.15
2023-03-01T21:31:34.043Z,5.15
2023-03-01T21:34:05.653Z,5.15
2023-03-01T21:36:35.339Z,5.15
2023-03-01T21:39:05.848Z,5.15
2023-03-01T21:41:36.510Z,5.17
2023-03-01T21:44:06.834Z,5.17
2023-03-01T21:46:38.161Z,5.18
2023-03-01T21:49:07.816Z,5.16
2023-03-01T21:51:36.810Z,5.16
2023-03-01T21:54:05.899Z,5.19
2023-03-01T21:56:39.098Z,5.22
2023-03-01T21:59:09.352Z,5.22
2023-03-01T22:01:37.363Z,5.22
2023-03-01T22:04:05.726Z,5.22
2023-03-01T22:06:41.066Z,5.21
2023-03-01T22:09:17.795Z,5.16
2023-03-01T22:11:54.576Z,5.08
2023-03-01T22:14:22.596Z,5.05
2023-03-01T22:16:51.804Z,5.05
2023-03-01T22:19:21.041Z,5.08
2023-03-01T22:21:52.231Z,5.10
2023-03-01T22:24:23.813Z,5.07
2023-03-01T22:26:53.538Z,5.04
2023-03-01T22:29:24.859Z,5.02
2023-03-01T22:31:54.333Z,4.99
2023-03-01T22:34:22.432Z,4.99
2023-03-01T22:36:50.899Z,4.95
2023-03-01T22:39:21.221Z,4.93
2023-03-01T22:41:50.674Z,4.91
2023-03-01T22:44:21.748Z,4.89
2023-03-01T22:46:50.256Z,4.86
2023-03-01T22:49:19.556Z,4.85
2023-03-01T22:51:48.354Z,4.85
2023-03-01T22:54:17.980Z,4.84
2023-03-01T22:56:46.695Z,4.83
2023-03-01T22:59:19.162Z,4.81
2023-03-01T23:01:48.268Z,4.79
2023-03-01T23:04:17.627Z,4.77
2023-03-01T23:06:54.325Z,4.78
2023-03-01T23:09:32.830Z,4.78
2023-03-01T23:12:02.614Z,4.77
2023-03-01T23:14:32.556Z,4.77
2023-03-01T23:17:02.326Z,4.76
2023-03-01T23:19:31.161Z,4.72
2023-03-01T23:21:59.379Z,4.70
2023-03-01T23:24:31.773Z,4.68
2023-03-01T23:27:01.576Z,4.66
2023-03-01T23:29:30.669Z,4.63
2023-03-01T23:32:00.125Z,4.61
2023-03-01T23:34:28.664Z,4.58
2023-03-01T23:36:58.105Z,4.54
2023-03-01T23:39:26.696Z,4.48
2023-03-01T23:41:54.698Z,4.42
2023-03-01T23:44:23.471Z,4.36
2023-03-01T23:46:51.579Z,4.29
2023-03-01T23:49:23.402Z,4.22
2023-03-01T23:51:51.624Z,4.16
2023-03-01T23:54:22.627Z,4.09
2023-03-01T23:56:51.082Z,3.99
2023-03-01T23:59:22.518Z,3.89
